RRR1760 ESGG-EGNT
Flight info
| Callsign | RRR1760 |
|---|---|
| Flight time | 1h 27m |
| Altitude | 38000 |
| Route | DETNA N866 AAL Z716 VAXIT DCT REKNA DCT ROBEM |
| Aircraft | A20N/M-SDE2E3FGHIRWXY/LB1 |
Departure
| Time | 2026-05-06 16:06 |
|---|---|
| Airport | Göteborg Landvetter Airport (ESGG) |
Arrival
| Time | 2026-05-06 17:33 |
|---|---|
| Airport | Newcastle International Airport (EGNT) |
| Time | Latitude | Longitude | Altitude | Speed | Heading |
|---|---|---|---|---|---|
| 2026-05-06 15:50 | 57.67170 | 12.29660 | 512 ft | 0 kts | 116° |
| 2026-05-06 15:56 | 57.67171 | 12.29657 | 512 ft | 2 kts | 116° |
| 2026-05-06 15:56 | 57.67181 | 12.29612 | 512 ft | 4 kts | 105° |
| 2026-05-06 15:56 | 57.67185 | 12.29568 | 512 ft | 0 kts | 81° |
| 2026-05-06 15:57 | 57.67184 | 12.29562 | 512 ft | 2 kts | 84° |
| 2026-05-06 15:58 | 57.67188 | 12.29535 | 512 ft | 2 kts | 120° |
| 2026-05-06 15:58 | 57.67196 | 12.29512 | 512 ft | 2 kts | 126° |
| 2026-05-06 15:58 | 57.67204 | 12.29489 | 512 ft | 2 kts | 122° |
| 2026-05-06 15:58 | 57.67212 | 12.29466 | 512 ft | 2 kts | 120° |
| 2026-05-06 15:59 | 57.67213 | 12.29462 | 512 ft | 0 kts | 119° |
| 2026-05-06 16:01 | 57.67214 | 12.29460 | 512 ft | 2 kts | 118° |
| 2026-05-06 16:01 | 57.67214 | 12.29459 | 512 ft | 0 kts | 118° |
| 2026-05-06 16:02 | 57.67210 | 12.29479 | 512 ft | 3 kts | 112° |
| 2026-05-06 16:02 | 57.67205 | 12.29537 | 512 ft | 5 kts | 75° |
| 2026-05-06 16:02 | 57.67238 | 12.29585 | 513 ft | 7 kts | 28° |
| 2026-05-06 16:03 | 57.67290 | 12.29634 | 513 ft | 9 kts | 26° |
| 2026-05-06 16:03 | 57.67352 | 12.29649 | 514 ft | 9 kts | 322° |
| 2026-05-06 16:03 | 57.67393 | 12.29544 | 514 ft | 11 kts | 297° |
| 2026-05-06 16:03 | 57.67428 | 12.29404 | 514 ft | 13 kts | 295° |
| 2026-05-06 16:04 | 57.67458 | 12.29258 | 513 ft | 2 kts | 276° |
| 2026-05-06 16:04 | 57.67458 | 12.29257 | 514 ft | 0 kts | 276° |
| 2026-05-06 16:05 | 57.67459 | 12.29250 | 513 ft | 3 kts | 276° |
| 2026-05-06 16:05 | 57.67451 | 12.29113 | 512 ft | 21 kts | 250° |
| 2026-05-06 16:05 | 57.67278 | 12.28880 | 512 ft | 62 kts | 207° |
| 2026-05-06 16:05 | 57.66632 | 12.28293 | 506 ft | 141 kts | 205° |
| 2026-05-06 16:06 | 57.65577 | 12.27352 | 729 ft | 184 kts | 208° |
| 2026-05-06 16:06 | 57.64361 | 12.26266 | 1386 ft | 205 kts | 208° |
| 2026-05-06 16:06 | 57.63094 | 12.25108 | 2594 ft | 198 kts | 208° |
| 2026-05-06 16:06 | 57.61831 | 12.23922 | 3463 ft | 209 kts | 207° |
| 2026-05-06 16:07 | 57.60478 | 12.22657 | 4017 ft | 229 kts | 206° |
| 2026-05-06 16:07 | 57.58967 | 12.21290 | 4498 ft | 254 kts | 206° |
| 2026-05-06 16:07 | 57.57462 | 12.19462 | 4945 ft | 260 kts | 226° |
| 2026-05-06 16:07 | 57.56567 | 12.16543 | 5391 ft | 264 kts | 253° |
| 2026-05-06 16:08 | 57.56208 | 12.13208 | 5836 ft | 265 kts | 258° |
| 2026-05-06 16:08 | 57.55876 | 12.09833 | 6293 ft | 267 kts | 257° |
| 2026-05-06 16:08 | 57.55531 | 12.06409 | 6719 ft | 269 kts | 257° |
| 2026-05-06 16:08 | 57.55176 | 12.02984 | 7222 ft | 269 kts | 257° |
| 2026-05-06 16:09 | 57.54815 | 11.99548 | 7737 ft | 270 kts | 257° |
| 2026-05-06 16:09 | 57.54449 | 11.96092 | 8373 ft | 271 kts | 257° |
| 2026-05-06 16:09 | 57.54119 | 11.92607 | 9185 ft | 276 kts | 263° |
| 2026-05-06 16:09 | 57.54084 | 11.89017 | 10015 ft | 278 kts | 274° |
| 2026-05-06 16:10 | 57.54306 | 11.85466 | 10879 ft | 282 kts | 276° |
| 2026-05-06 16:10 | 57.54533 | 11.81816 | 11780 ft | 285 kts | 276° |
| 2026-05-06 16:10 | 57.54752 | 11.78144 | 12635 ft | 290 kts | 276° |
| 2026-05-06 16:10 | 57.54974 | 11.74363 | 13455 ft | 296 kts | 275° |
| 2026-05-06 16:11 | 57.55199 | 11.70522 | 14217 ft | 301 kts | 275° |
| 2026-05-06 16:11 | 57.55427 | 11.66619 | 14971 ft | 305 kts | 275° |
| 2026-05-06 16:11 | 57.55659 | 11.62643 | 15738 ft | 309 kts | 275° |
| 2026-05-06 16:11 | 57.55890 | 11.58643 | 16486 ft | 313 kts | 275° |
| 2026-05-06 16:12 | 57.56124 | 11.54585 | 17238 ft | 317 kts | 274° |
| 2026-05-06 16:12 | 57.56359 | 11.50482 | 18008 ft | 320 kts | 274° |
| 2026-05-06 16:12 | 57.56593 | 11.46373 | 18708 ft | 322 kts | 274° |
| 2026-05-06 16:12 | 57.56829 | 11.42214 | 19392 ft | 324 kts | 274° |
| 2026-05-06 16:13 | 57.57065 | 11.38023 | 20092 ft | 325 kts | 274° |
| 2026-05-06 16:13 | 57.57297 | 11.33876 | 20804 ft | 326 kts | 273° |
| 2026-05-06 16:13 | 57.57532 | 11.29660 | 21564 ft | 325 kts | 273° |
| 2026-05-06 16:13 | 57.57762 | 11.25498 | 22372 ft | 323 kts | 273° |
| 2026-05-06 16:14 | 57.57992 | 11.21330 | 23171 ft | 321 kts | 272° |
| 2026-05-06 16:14 | 57.58218 | 11.17178 | 23772 ft | 323 kts | 272° |
| 2026-05-06 16:14 | 57.58385 | 11.12987 | 24291 ft | 324 kts | 266° |
| 2026-05-06 16:14 | 57.58135 | 11.08836 | 24809 ft | 323 kts | 256° |
| 2026-05-06 16:15 | 57.57421 | 11.04862 | 25303 ft | 325 kts | 245° |
| 2026-05-06 16:15 | 57.56267 | 11.01228 | 25781 ft | 328 kts | 234° |
| 2026-05-06 16:15 | 57.54800 | 10.97914 | 26210 ft | 333 kts | 232° |
| 2026-05-06 16:15 | 57.53312 | 10.94571 | 26596 ft | 338 kts | 232° |
| 2026-05-06 16:16 | 57.51834 | 10.91234 | 26976 ft | 342 kts | 232° |
| 2026-05-06 16:16 | 57.50307 | 10.87786 | 27381 ft | 346 kts | 232° |
| 2026-05-06 16:16 | 57.48768 | 10.84319 | 27778 ft | 350 kts | 232° |
| 2026-05-06 16:16 | 57.47202 | 10.80800 | 28151 ft | 354 kts | 232° |
| 2026-05-06 16:17 | 57.45621 | 10.77253 | 28480 ft | 359 kts | 232° |
| 2026-05-06 16:17 | 57.44018 | 10.73664 | 28816 ft | 363 kts | 232° |
| 2026-05-06 16:17 | 57.42397 | 10.70039 | 29155 ft | 367 kts | 232° |
| 2026-05-06 16:17 | 57.40755 | 10.66373 | 29492 ft | 371 kts | 232° |
| 2026-05-06 16:18 | 57.39101 | 10.62688 | 29837 ft | 374 kts | 232° |
| 2026-05-06 16:18 | 57.37420 | 10.58945 | 30170 ft | 377 kts | 232° |
| 2026-05-06 16:18 | 57.35736 | 10.55204 | 30456 ft | 381 kts | 231° |
| 2026-05-06 16:18 | 57.34048 | 10.51461 | 30754 ft | 383 kts | 231° |
| 2026-05-06 16:19 | 57.32328 | 10.47652 | 31059 ft | 386 kts | 231° |
| 2026-05-06 16:19 | 57.30600 | 10.43831 | 31364 ft | 389 kts | 231° |
| 2026-05-06 16:19 | 57.28851 | 10.39972 | 31672 ft | 391 kts | 231° |
| 2026-05-06 16:19 | 57.27097 | 10.36107 | 31977 ft | 393 kts | 231° |
| 2026-05-06 16:20 | 57.25318 | 10.32193 | 32305 ft | 395 kts | 231° |
| 2026-05-06 16:20 | 57.23549 | 10.28305 | 32624 ft | 396 kts | 231° |
| 2026-05-06 16:20 | 57.21775 | 10.24415 | 32946 ft | 396 kts | 231° |
| 2026-05-06 16:20 | 57.19998 | 10.20523 | 33273 ft | 396 kts | 231° |
| 2026-05-06 16:21 | 57.18246 | 10.16694 | 33603 ft | 395 kts | 231° |
| 2026-05-06 16:21 | 57.16468 | 10.12813 | 33932 ft | 395 kts | 231° |
| 2026-05-06 16:21 | 57.14702 | 10.08964 | 34209 ft | 395 kts | 231° |
| 2026-05-06 16:21 | 57.12968 | 10.05074 | 34500 ft | 395 kts | 235° |
| 2026-05-06 16:22 | 57.11482 | 10.00763 | 34746 ft | 395 kts | 242° |
| 2026-05-06 16:22 | 57.10359 | 9.96147 | 34934 ft | 397 kts | 250° |
| 2026-05-06 16:22 | 57.09589 | 9.91248 | 35130 ft | 400 kts | 257° |
| 2026-05-06 16:22 | 57.09114 | 9.86201 | 35325 ft | 401 kts | 259° |
| 2026-05-06 16:23 | 57.08654 | 9.81128 | 35523 ft | 401 kts | 258° |
| 2026-05-06 16:23 | 57.08186 | 9.76061 | 35722 ft | 402 kts | 258° |
| 2026-05-06 16:23 | 57.07719 | 9.71060 | 35921 ft | 403 kts | 258° |
| 2026-05-06 16:23 | 57.07243 | 9.65994 | 36122 ft | 403 kts | 258° |
| 2026-05-06 16:24 | 57.06762 | 9.60920 | 36321 ft | 404 kts | 258° |
| 2026-05-06 16:24 | 57.06276 | 9.55815 | 36532 ft | 404 kts | 258° |
| 2026-05-06 16:24 | 57.05786 | 9.50699 | 36742 ft | 405 kts | 258° |
| 2026-05-06 16:24 | 57.05296 | 9.45613 | 36953 ft | 405 kts | 258° |
| 2026-05-06 16:25 | 57.04803 | 9.40515 | 37156 ft | 405 kts | 258° |
| 2026-05-06 16:25 | 57.04308 | 9.35414 | 37372 ft | 405 kts | 258° |
| 2026-05-06 16:25 | 57.03817 | 9.30383 | 37588 ft | 405 kts | 258° |
| 2026-05-06 16:25 | 57.03319 | 9.25293 | 37803 ft | 404 kts | 258° |
| 2026-05-06 16:26 | 57.02819 | 9.20214 | 37968 ft | 406 kts | 258° |
| 2026-05-06 16:26 | 57.02317 | 9.15136 | 37968 ft | 408 kts | 258° |
| 2026-05-06 16:26 | 57.01294 | 9.04846 | 37967 ft | 407 kts | 258° |
| 2026-05-06 16:27 | 57.00267 | 8.94613 | 37973 ft | 408 kts | 258° |
| 2026-05-06 16:27 | 56.99231 | 8.84378 | 37975 ft | 408 kts | 258° |
| 2026-05-06 16:28 | 56.98188 | 8.74161 | 37973 ft | 408 kts | 258° |
| 2026-05-06 16:28 | 56.97144 | 8.64022 | 37972 ft | 408 kts | 258° |
| 2026-05-06 16:29 | 56.96086 | 8.53832 | 37980 ft | 408 kts | 258° |
| 2026-05-06 16:29 | 56.95013 | 8.43594 | 37980 ft | 408 kts | 258° |
| 2026-05-06 16:30 | 56.94116 | 8.35089 | 37984 ft | 408 kts | 258° |
| 2026-05-06 16:30 | 56.92848 | 8.23168 | 37981 ft | 408 kts | 258° |
| 2026-05-06 16:31 | 56.91762 | 8.13054 | 37985 ft | 408 kts | 258° |
| 2026-05-06 16:31 | 56.90659 | 8.02862 | 37987 ft | 408 kts | 258° |
| 2026-05-06 16:32 | 56.89547 | 7.92661 | 37987 ft | 408 kts | 258° |
| 2026-05-06 16:32 | 56.88429 | 7.82497 | 37992 ft | 408 kts | 258° |
| 2026-05-06 16:33 | 56.87310 | 7.72397 | 37992 ft | 408 kts | 258° |
| 2026-05-06 16:34 | 56.85603 | 7.57150 | 37991 ft | 408 kts | 258° |
| 2026-05-06 16:34 | 56.84454 | 7.46989 | 37994 ft | 408 kts | 257° |
| 2026-05-06 16:35 | 56.83297 | 7.36832 | 37996 ft | 408 kts | 257° |
| 2026-05-06 16:35 | 56.82137 | 7.26724 | 38008 ft | 414 kts | 257° |
| 2026-05-06 16:36 | 56.80931 | 7.16303 | 37992 ft | 422 kts | 257° |
| 2026-05-06 16:36 | 56.79700 | 7.05748 | 37993 ft | 428 kts | 257° |
| 2026-05-06 16:37 | 56.78452 | 6.95119 | 37993 ft | 428 kts | 257° |
| 2026-05-06 16:37 | 56.77198 | 6.84537 | 38018 ft | 428 kts | 257° |
| 2026-05-06 16:38 | 56.76147 | 6.75727 | 38008 ft | 428 kts | 257° |
| 2026-05-06 16:38 | 56.74870 | 6.65099 | 38021 ft | 428 kts | 257° |
| 2026-05-06 16:39 | 56.73583 | 6.54466 | 38007 ft | 428 kts | 257° |
| 2026-05-06 16:39 | 56.72290 | 6.43871 | 38004 ft | 429 kts | 257° |
| 2026-05-06 16:40 | 56.70983 | 6.33245 | 38012 ft | 430 kts | 257° |
| 2026-05-06 16:40 | 56.69676 | 6.22687 | 38020 ft | 430 kts | 257° |
| 2026-05-06 16:41 | 56.68348 | 6.12051 | 38015 ft | 430 kts | 257° |
| 2026-05-06 16:41 | 56.67012 | 6.01424 | 38021 ft | 430 kts | 257° |
| 2026-05-06 16:42 | 56.65668 | 5.90818 | 38013 ft | 430 kts | 257° |
| 2026-05-06 16:42 | 56.64321 | 5.80272 | 38028 ft | 430 kts | 257° |
| 2026-05-06 16:43 | 56.62958 | 5.69667 | 38016 ft | 431 kts | 256° |
| 2026-05-06 16:43 | 56.61585 | 5.59066 | 38021 ft | 431 kts | 256° |
| 2026-05-06 16:44 | 56.60203 | 5.48473 | 38023 ft | 431 kts | 256° |
| 2026-05-06 16:44 | 56.58811 | 5.37885 | 38020 ft | 431 kts | 256° |
| 2026-05-06 16:45 | 56.57418 | 5.27359 | 38025 ft | 431 kts | 256° |
| 2026-05-06 16:45 | 56.56010 | 5.16791 | 38032 ft | 432 kts | 256° |
| 2026-05-06 16:46 | 56.54597 | 5.06221 | 38029 ft | 432 kts | 256° |
| 2026-05-06 16:46 | 56.52791 | 4.95843 | 38031 ft | 432 kts | 248° |
| 2026-05-06 16:47 | 56.50410 | 4.85820 | 38037 ft | 432 kts | 248° |
| 2026-05-06 16:47 | 56.48069 | 4.75850 | 38035 ft | 433 kts | 248° |
| 2026-05-06 16:48 | 56.45706 | 4.65840 | 38037 ft | 433 kts | 247° |
| 2026-05-06 16:48 | 56.43326 | 4.55828 | 38035 ft | 433 kts | 247° |
| 2026-05-06 16:49 | 56.40938 | 4.45835 | 38037 ft | 433 kts | 247° |
| 2026-05-06 16:49 | 56.38535 | 4.35824 | 38038 ft | 434 kts | 247° |
| 2026-05-06 16:50 | 56.36140 | 4.25893 | 38039 ft | 434 kts | 247° |
| 2026-05-06 16:50 | 56.33722 | 4.15913 | 38039 ft | 434 kts | 247° |
| 2026-05-06 16:51 | 56.31295 | 4.05939 | 38046 ft | 434 kts | 247° |
| 2026-05-06 16:51 | 56.28861 | 3.95984 | 38042 ft | 434 kts | 247° |
| 2026-05-06 16:52 | 56.26417 | 3.86032 | 38042 ft | 434 kts | 247° |
| 2026-05-06 16:52 | 56.23971 | 3.76118 | 38040 ft | 434 kts | 246° |
| 2026-05-06 16:53 | 56.21511 | 3.66192 | 38042 ft | 435 kts | 246° |
| 2026-05-06 16:53 | 56.19061 | 3.56353 | 38044 ft | 435 kts | 246° |
| 2026-05-06 16:54 | 56.16926 | 3.46194 | 38046 ft | 435 kts | 256° |
| 2026-05-06 16:54 | 56.15478 | 3.35638 | 38044 ft | 435 kts | 256° |
| 2026-05-06 16:55 | 56.14022 | 3.25106 | 38044 ft | 435 kts | 256° |
| 2026-05-06 16:55 | 56.12555 | 3.14585 | 38048 ft | 435 kts | 256° |
| 2026-05-06 16:56 | 56.11072 | 3.04055 | 38048 ft | 435 kts | 256° |
| 2026-05-06 16:56 | 56.09590 | 2.93619 | 38050 ft | 436 kts | 256° |
| 2026-05-06 16:57 | 56.08087 | 2.83097 | 38048 ft | 436 kts | 255° |
| 2026-05-06 16:57 | 56.06573 | 2.72574 | 38060 ft | 436 kts | 255° |
| 2026-05-06 16:58 | 56.05052 | 2.62071 | 38055 ft | 436 kts | 255° |
| 2026-05-06 16:58 | 56.03520 | 2.51565 | 37740 ft | 434 kts | 255° |
| 2026-05-06 16:58 | 56.02758 | 2.46367 | 37463 ft | 431 kts | 255° |
| 2026-05-06 16:59 | 56.02002 | 2.41224 | 37199 ft | 427 kts | 255° |
| 2026-05-06 16:59 | 56.01249 | 2.36119 | 36931 ft | 424 kts | 255° |
| 2026-05-06 16:59 | 56.00506 | 2.31097 | 36660 ft | 421 kts | 255° |
| 2026-05-06 16:59 | 55.99751 | 2.26006 | 36405 ft | 418 kts | 255° |
| 2026-05-06 17:00 | 55.99005 | 2.20996 | 36156 ft | 414 kts | 255° |
| 2026-05-06 17:00 | 55.98273 | 2.16095 | 35899 ft | 411 kts | 255° |
| 2026-05-06 17:00 | 55.97536 | 2.11174 | 35649 ft | 409 kts | 255° |
| 2026-05-06 17:00 | 55.96801 | 2.06281 | 35389 ft | 406 kts | 255° |
| 2026-05-06 17:01 | 55.96071 | 2.01439 | 35140 ft | 402 kts | 255° |
| 2026-05-06 17:01 | 55.95345 | 1.96636 | 34893 ft | 399 kts | 255° |
| 2026-05-06 17:01 | 55.94622 | 1.91865 | 34654 ft | 397 kts | 255° |
| 2026-05-06 17:01 | 55.93902 | 1.87128 | 34422 ft | 394 kts | 255° |
| 2026-05-06 17:02 | 55.93181 | 1.82398 | 34188 ft | 392 kts | 255° |
| 2026-05-06 17:02 | 55.92456 | 1.77660 | 33939 ft | 403 kts | 255° |
| 2026-05-06 17:02 | 55.91703 | 1.72746 | 33608 ft | 419 kts | 255° |
| 2026-05-06 17:02 | 55.90925 | 1.67692 | 33285 ft | 425 kts | 255° |
| 2026-05-06 17:03 | 55.90145 | 1.62631 | 32968 ft | 422 kts | 255° |
| 2026-05-06 17:03 | 55.89366 | 1.57597 | 32630 ft | 419 kts | 255° |
| 2026-05-06 17:03 | 55.88590 | 1.52599 | 32318 ft | 417 kts | 254° |
| 2026-05-06 17:03 | 55.87819 | 1.47646 | 32007 ft | 415 kts | 254° |
| 2026-05-06 17:04 | 55.87046 | 1.42701 | 31698 ft | 413 kts | 254° |
| 2026-05-06 17:04 | 55.86276 | 1.37783 | 31388 ft | 412 kts | 254° |
| 2026-05-06 17:04 | 55.85520 | 1.32967 | 31090 ft | 410 kts | 254° |
| 2026-05-06 17:04 | 55.84742 | 1.28029 | 30796 ft | 408 kts | 254° |
| 2026-05-06 17:05 | 55.83975 | 1.23177 | 30491 ft | 406 kts | 254° |
| 2026-05-06 17:05 | 55.83212 | 1.18363 | 30183 ft | 404 kts | 254° |
| 2026-05-06 17:05 | 55.82449 | 1.13556 | 29756 ft | 402 kts | 254° |
| 2026-05-06 17:05 | 55.81696 | 1.08836 | 29340 ft | 400 kts | 254° |
| 2026-05-06 17:06 | 55.80940 | 1.04101 | 28919 ft | 397 kts | 254° |
| 2026-05-06 17:06 | 55.80184 | 0.99383 | 28502 ft | 395 kts | 254° |
| 2026-05-06 17:06 | 55.79432 | 0.94703 | 28091 ft | 393 kts | 254° |
| 2026-05-06 17:06 | 55.78680 | 0.90038 | 27697 ft | 401 kts | 254° |
| 2026-05-06 17:07 | 55.77882 | 0.85100 | 27294 ft | 422 kts | 254° |
| 2026-05-06 17:07 | 55.77070 | 0.80085 | 26910 ft | 440 kts | 254° |
| 2026-05-06 17:07 | 55.76218 | 0.74841 | 26520 ft | 440 kts | 254° |
| 2026-05-06 17:07 | 55.75370 | 0.69640 | 26143 ft | 437 kts | 254° |
| 2026-05-06 17:08 | 55.74508 | 0.64372 | 25699 ft | 435 kts | 254° |
| 2026-05-06 17:08 | 55.73674 | 0.59290 | 25211 ft | 433 kts | 254° |
| 2026-05-06 17:08 | 55.72835 | 0.54190 | 24727 ft | 430 kts | 254° |
| 2026-05-06 17:08 | 55.71996 | 0.49099 | 24250 ft | 428 kts | 254° |
| 2026-05-06 17:09 | 55.71160 | 0.44052 | 23781 ft | 426 kts | 254° |
| 2026-05-06 17:09 | 55.70343 | 0.39021 | 23245 ft | 424 kts | 255° |
| 2026-05-06 17:09 | 55.69598 | 0.33984 | 22702 ft | 420 kts | 256° |
| 2026-05-06 17:09 | 55.68862 | 0.28990 | 22157 ft | 417 kts | 256° |
| 2026-05-06 17:10 | 55.68131 | 0.24053 | 21627 ft | 413 kts | 256° |
| 2026-05-06 17:10 | 55.67399 | 0.19141 | 21110 ft | 411 kts | 256° |
| 2026-05-06 17:10 | 55.66670 | 0.14263 | 20597 ft | 408 kts | 256° |
| 2026-05-06 17:10 | 55.65945 | 0.09434 | 20097 ft | 405 kts | 256° |
| 2026-05-06 17:11 | 55.65211 | 0.04575 | 19612 ft | 420 kts | 256° |
| 2026-05-06 17:11 | 55.64442 | -0.00518 | 19115 ft | 426 kts | 256° |
| 2026-05-06 17:11 | 55.63693 | -0.05460 | 18664 ft | 421 kts | 256° |
| 2026-05-06 17:11 | 55.62933 | -0.10449 | 18266 ft | 419 kts | 256° |
| 2026-05-06 17:12 | 55.62169 | -0.15446 | 17797 ft | 418 kts | 255° |
| 2026-05-06 17:12 | 55.61408 | -0.20410 | 17342 ft | 415 kts | 255° |
| 2026-05-06 17:12 | 55.60580 | -0.25287 | 16902 ft | 413 kts | 252° |
| 2026-05-06 17:12 | 55.59612 | -0.30040 | 16508 ft | 411 kts | 250° |
| 2026-05-06 17:13 | 55.58605 | -0.34784 | 16121 ft | 410 kts | 250° |
| 2026-05-06 17:13 | 55.57605 | -0.39489 | 15737 ft | 407 kts | 250° |
| 2026-05-06 17:13 | 55.56608 | -0.44168 | 15354 ft | 406 kts | 250° |
| 2026-05-06 17:13 | 55.55614 | -0.48831 | 15008 ft | 404 kts | 250° |
| 2026-05-06 17:14 | 55.54626 | -0.53462 | 14724 ft | 402 kts | 250° |
| 2026-05-06 17:14 | 55.53639 | -0.58072 | 14428 ft | 401 kts | 250° |
| 2026-05-06 17:14 | 55.52653 | -0.62664 | 14142 ft | 399 kts | 250° |
| 2026-05-06 17:14 | 55.51667 | -0.67240 | 13845 ft | 398 kts | 250° |
| 2026-05-06 17:15 | 55.50684 | -0.71808 | 13518 ft | 397 kts | 250° |
| 2026-05-06 17:15 | 55.49708 | -0.76330 | 13197 ft | 390 kts | 250° |
| 2026-05-06 17:15 | 55.48775 | -0.80645 | 12874 ft | 375 kts | 250° |
| 2026-05-06 17:15 | 55.47810 | -0.84853 | 12566 ft | 361 kts | 245° |
| 2026-05-06 17:16 | 55.46457 | -0.88513 | 12368 ft | 364 kts | 235° |
| 2026-05-06 17:16 | 55.44926 | -0.92147 | 12203 ft | 366 kts | 235° |
| 2026-05-06 17:16 | 55.43411 | -0.95737 | 12076 ft | 363 kts | 235° |
| 2026-05-06 17:16 | 55.41900 | -0.99309 | 12060 ft | 365 kts | 235° |
| 2026-05-06 17:17 | 55.40382 | -1.02902 | 12064 ft | 365 kts | 235° |
| 2026-05-06 17:17 | 55.38862 | -1.06501 | 12034 ft | 365 kts | 235° |
| 2026-05-06 17:17 | 55.37338 | -1.10071 | 11802 ft | 365 kts | 234° |
| 2026-05-06 17:17 | 55.35756 | -1.13485 | 11554 ft | 363 kts | 232° |
| 2026-05-06 17:18 | 55.34102 | -1.16918 | 11294 ft | 365 kts | 231° |
| 2026-05-06 17:18 | 55.32467 | -1.20305 | 11046 ft | 369 kts | 231° |
| 2026-05-06 17:18 | 55.31345 | -1.22639 | 10873 ft | 368 kts | 232° |
| 2026-05-06 17:18 | 55.29718 | -1.26041 | 10625 ft | 365 kts | 232° |
| 2026-05-06 17:19 | 55.28077 | -1.29489 | 10378 ft | 366 kts | 232° |
| 2026-05-06 17:19 | 55.26455 | -1.32896 | 10118 ft | 365 kts | 232° |
| 2026-05-06 17:19 | 55.24824 | -1.36324 | 9759 ft | 363 kts | 232° |
| 2026-05-06 17:19 | 55.23227 | -1.39672 | 9345 ft | 353 kts | 232° |
| 2026-05-06 17:20 | 55.21673 | -1.42922 | 8939 ft | 343 kts | 232° |
| 2026-05-06 17:20 | 55.20165 | -1.46082 | 8537 ft | 334 kts | 232° |
| 2026-05-06 17:20 | 55.18695 | -1.49157 | 8146 ft | 326 kts | 232° |
| 2026-05-06 17:20 | 55.17256 | -1.52164 | 7768 ft | 319 kts | 232° |
| 2026-05-06 17:21 | 55.15841 | -1.55111 | 7383 ft | 313 kts | 232° |
| 2026-05-06 17:21 | 55.14454 | -1.57997 | 7001 ft | 307 kts | 232° |
| 2026-05-06 17:21 | 55.13441 | -1.60103 | 6722 ft | 303 kts | 232° |
| 2026-05-06 17:21 | 55.12092 | -1.62911 | 6345 ft | 299 kts | 232° |
| 2026-05-06 17:22 | 55.10784 | -1.65635 | 5944 ft | 294 kts | 232° |
| 2026-05-06 17:22 | 55.09473 | -1.68356 | 5542 ft | 291 kts | 232° |
| 2026-05-06 17:22 | 55.08176 | -1.71044 | 5165 ft | 287 kts | 232° |
| 2026-05-06 17:22 | 55.06903 | -1.73679 | 4906 ft | 280 kts | 232° |
| 2026-05-06 17:23 | 55.05658 | -1.76251 | 4632 ft | 274 kts | 232° |
| 2026-05-06 17:23 | 55.04499 | -1.78837 | 4320 ft | 268 kts | 240° |
| 2026-05-06 17:23 | 55.03622 | -1.81684 | 3996 ft | 264 kts | 245° |
| 2026-05-06 17:23 | 55.03015 | -1.84668 | 3692 ft | 258 kts | 259° |
| 2026-05-06 17:24 | 55.02762 | -1.86652 | 3617 ft | 248 kts | 260° |
| 2026-05-06 17:24 | 55.02397 | -1.89559 | 3302 ft | 244 kts | 260° |
| 2026-05-06 17:24 | 55.02039 | -1.92442 | 2907 ft | 242 kts | 260° |
| 2026-05-06 17:24 | 55.01689 | -1.95311 | 2572 ft | 241 kts | 260° |
| 2026-05-06 17:25 | 55.01353 | -1.98097 | 2471 ft | 228 kts | 260° |
| 2026-05-06 17:25 | 55.01033 | -2.00726 | 2468 ft | 213 kts | 258° |
| 2026-05-06 17:25 | 55.00447 | -2.02945 | 2494 ft | 197 kts | 233° |
| 2026-05-06 17:25 | 54.99481 | -2.04444 | 2458 ft | 180 kts | 207° |
| 2026-05-06 17:26 | 54.98369 | -2.05086 | 2464 ft | 158 kts | 182° |
| 2026-05-06 17:26 | 54.97316 | -2.04997 | 2480 ft | 151 kts | 161° |
| 2026-05-06 17:26 | 54.96353 | -2.04296 | 2467 ft | 146 kts | 141° |
| 2026-05-06 17:26 | 54.95642 | -2.03085 | 2465 ft | 142 kts | 114° |
| 2026-05-06 17:27 | 54.95424 | -2.01490 | 2467 ft | 134 kts | 84° |
| 2026-05-06 17:27 | 54.95610 | -1.99892 | 2472 ft | 137 kts | 68° |
| 2026-05-06 17:27 | 54.95969 | -1.98390 | 2457 ft | 135 kts | 63° |
| 2026-05-06 17:27 | 54.96378 | -1.96898 | 2477 ft | 138 kts | 64° |
| 2026-05-06 17:28 | 54.96773 | -1.95399 | 2478 ft | 133 kts | 63° |
| 2026-05-06 17:28 | 54.97162 | -1.93944 | 2479 ft | 133 kts | 64° |
| 2026-05-06 17:28 | 54.97554 | -1.92469 | 2471 ft | 137 kts | 64° |
| 2026-05-06 17:28 | 54.97951 | -1.90970 | 2472 ft | 135 kts | 64° |
| 2026-05-06 17:29 | 54.98342 | -1.89496 | 2472 ft | 134 kts | 64° |
| 2026-05-06 17:29 | 54.98739 | -1.88006 | 2477 ft | 136 kts | 63° |
| 2026-05-06 17:29 | 54.99139 | -1.86503 | 2360 ft | 133 kts | 64° |
| 2026-05-06 17:29 | 54.99513 | -1.85092 | 2171 ft | 122 kts | 63° |
| 2026-05-06 17:30 | 54.99851 | -1.83824 | 1999 ft | 112 kts | 64° |
| 2026-05-06 17:30 | 55.00173 | -1.82612 | 1860 ft | 114 kts | 64° |
| 2026-05-06 17:30 | 55.00514 | -1.81327 | 1694 ft | 114 kts | 64° |
| 2026-05-06 17:30 | 55.00850 | -1.80066 | 1539 ft | 114 kts | 65° |
| 2026-05-06 17:31 | 55.01181 | -1.78819 | 1372 ft | 114 kts | 63° |
| 2026-05-06 17:31 | 55.01523 | -1.77530 | 1204 ft | 119 kts | 65° |
| 2026-05-06 17:31 | 55.01872 | -1.76217 | 1020 ft | 120 kts | 65° |
| 2026-05-06 17:31 | 55.02220 | -1.74904 | 845 ft | 119 kts | 66° |
| 2026-05-06 17:32 | 55.02565 | -1.73606 | 692 ft | 117 kts | 66° |
| 2026-05-06 17:32 | 55.02913 | -1.72326 | 523 ft | 117 kts | 68° |
| 2026-05-06 17:32 | 55.03237 | -1.71088 | 379 ft | 118 kts | 68° |
| 2026-05-06 17:32 | 55.03541 | -1.69928 | 263 ft | 117 kts | 68° |
| 2026-05-06 17:33 | 55.03740 | -1.69168 | 254 ft | 82 kts | 66° |
| 2026-05-06 17:33 | 55.03893 | -1.68598 | 249 ft | 41 kts | 65° |
| 2026-05-06 17:33 | 55.04058 | -1.68276 | 248 ft | 32 kts | 35° |
| 2026-05-06 17:33 | 55.04107 | -1.68232 | 247 ft | 0 kts | 4° |
| 2026-05-06 17:34 | 55.04119 | -1.68231 | 247 ft | 6 kts | 1° |
| 2026-05-06 17:34 | 55.04136 | -1.68368 | 248 ft | 22 kts | 245° |
| 2026-05-06 17:34 | 55.04058 | -1.68663 | 249 ft | 32 kts | 245° |
| 2026-05-06 17:35 | 55.03955 | -1.69051 | 252 ft | 38 kts | 245° |
| 2026-05-06 17:35 | 55.03840 | -1.69491 | 256 ft | 40 kts | 247° |
| 2026-05-06 17:35 | 55.03778 | -1.69928 | 260 ft | 34 kts | 264° |
| 2026-05-06 17:36 | 55.03800 | -1.70556 | 267 ft | 4 kts | 279° |
| 2026-05-06 17:36 | 55.03828 | -1.70600 | 267 ft | 9 kts | 348° |
| 2026-05-06 17:36 | 55.03870 | -1.70594 | 267 ft | 0 kts | 4° |